Time;durP1;ratioP1;P1;durP2;ratioP2;P2;SDS_P1;SDS_P2;PMS_P1;PMS_P2;Temp;Humidity;BMP_temperature;BMP_pressure;BME280_temperature;BME280_humidity;BME280_pressure;Samples;Min_cycle;Max_cycle;Signal;HPM_P1;HPM_P2
2023/03/08 00:01:47;;;;;;;;;;;3.50;99.90;;;;;;5065092;28;19992;-69
2023/03/08 00:04:14;;;;;;;;;;;3.50;99.90;;;;;;5059726;28;19988;-69
2023/03/08 00:06:40;;;;;;;;;;;3.50;99.90;;;;;;5044311;28;20149;-69
2023/03/08 00:09:07;;;;;;;;;;;3.50;99.90;;;;;;5044635;28;19992;-69
2023/03/08 00:11:33;;;;;;;;;;;3.60;99.90;;;;;;5044703;28;20120;-68
2023/03/08 00:14:02;;;;;;;;;;;3.60;99.90;;;;;;5044624;28;19984;-69
2023/03/08 00:16:30;;;;;;;;;;;3.60;99.90;;;;;;5043459;28;19921;-69
2023/03/08 00:18:57;;;;;;;;;;;3.60;99.90;;;;;;5044654;28;19988;-69
2023/03/08 00:21:26;;;;;;;;;;;3.60;99.90;;;;;;5042620;28;19955;-69
2023/03/08 00:23:53;;;;;;;;;;;3.60;99.90;;;;;;5043650;28;19952;-69
2023/03/08 00:26:20;;;;;;;;;;;3.60;99.90;;;;;;5044047;28;19921;-69
2023/03/08 00:28:46;;;;;;;;;;;3.70;99.90;;;;;;5044588;28;19947;-68
2023/03/08 00:31:14;;;;;;;;;;;3.70;99.90;;;;;;5064638;28;19921;-69
2023/03/08 00:33:47;;;;;;;;;;;3.70;99.90;;;;;;5061510;28;19920;-68
2023/03/08 00:36:14;;;;;;;;;;;3.70;99.90;;;;;;5042984;28;19944;-69
2023/03/08 00:38:43;;;;;;;;;;;3.70;99.90;;;;;;5041601;28;20161;-69
2023/03/08 00:41:10;;;;;;;;;;;3.70;99.90;;;;;;5044141;28;19965;-69
2023/03/08 00:43:37;;;;;;;;;;;3.80;99.90;;;;;;5044081;28;20221;-70
2023/03/08 00:46:04;;;;;;;;;;;3.70;99.90;;;;;;5043658;28;19949;-69
2023/03/08 00:48:32;;;;;;;;;;;3.70;99.90;;;;;;5043727;28;19928;-69
2023/03/08 00:50:59;;;;;;;;;;;3.70;99.90;;;;;;5043254;28;19928;-69
2023/03/08 00:53:25;;;;;;;;;;;3.70;99.90;;;;;;5043739;28;19948;-69
2023/03/08 00:55:53;;;;;;;;;;;3.70;99.90;;;;;;5043120;28;19927;-69
2023/03/08 00:58:20;;;;;;;;;;;3.70;99.90;;;;;;5043758;28;20163;-69
2023/03/08 01:00:47;;;;;;;;;;;3.70;99.90;;;;;;5043722;28;19921;-69
2023/03/08 01:03:14;;;;;;;;;;;3.70;99.90;;;;;;5041246;28;19921;-69
2023/03/08 01:05:43;;;;;;;;;;;3.70;99.90;;;;;;5043797;28;19956;-69
2023/03/08 01:08:10;;;;;;;;;;;3.70;99.90;;;;;;5043562;28;19952;-69
2023/03/08 01:10:36;;;;;;;;;;;3.60;99.90;;;;;;5044074;28;19987;-68
2023/03/08 01:13:04;;;;;;;;;;;3.70;99.90;;;;;;5041179;28;19927;-68
2023/03/08 01:15:30;;;;;;;;;;;3.60;99.90;;;;;;5043716;28;19993;-69
2023/03/08 01:17:57;;;;;;;;;;;3.70;99.90;;;;;;5043000;28;19953;-69
2023/03/08 01:20:23;;;;;;;;;;;3.60;99.90;;;;;;5043711;28;20179;-68
2023/03/08 01:22:52;;;;;;;;;;;3.60;99.90;;;;;;5041697;28;19988;-69
2023/03/08 01:25:19;;;;;;;;;;;3.50;99.90;;;;;;5043596;28;19989;-69
2023/03/08 01:27:46;;;;;;;;;;;3.50;99.90;;;;;;5042897;28;19987;-68
2023/03/08 01:30:12;;;;;;;;;;;3.40;99.90;;;;;;5043529;28;20172;-69
2023/03/08 01:32:39;;;;;;;;;;;3.40;99.90;;;;;;5041161;28;19992;-69
2023/03/08 01:35:06;;;;;;;;;;;3.40;99.90;;;;;;5042754;28;19929;-69
2023/03/08 01:37:35;;;;;;;;;;;3.40;99.90;;;;;;5043343;28;19927;-69
2023/03/08 01:40:04;;;;;;;;;;;3.40;99.90;;;;;;5046669;28;19988;-69
2023/03/08 01:42:31;;;;;;;;;;;3.40;99.90;;;;;;5047560;28;19921;-69
2023/03/08 01:44:59;;;;;;;;;;;3.30;99.90;;;;;;5047415;28;19921;-69
2023/03/08 01:47:27;;;;;;;;;;;3.30;99.90;;;;;;5047104;28;20000;-69
2023/03/08 01:49:54;;;;;;;;;;;3.40;99.90;;;;;;5047094;28;19927;-69
2023/03/08 01:52:23;;;;;;;;;;;3.20;99.90;;;;;;5047079;28;19927;-72
2023/03/08 01:54:51;;;;;;;;;;;3.20;99.90;;;;;;5046989;28;19999;-69
2023/03/08 01:57:20;;;;;;;;;;;3.20;99.90;;;;;;5047027;28;19925;-69
2023/03/08 01:59:48;;;;;;;;;;;3.10;99.90;;;;;;5047296;28;19928;-69
2023/03/08 02:02:16;;;;;;;;;;;3.10;99.90;;;;;;5047253;28;19960;-69
2023/03/08 02:04:43;;;;;;;;;;;3.10;99.90;;;;;;5046924;28;19921;-69
2023/03/08 02:07:09;;;;;;;;;;;3.10;99.90;;;;;;5046896;28;19925;-69
2023/03/08 02:09:36;;;;;;;;;;;3.00;99.90;;;;;;5047232;28;20157;-69
2023/03/08 02:12:06;;;;;;;;;;;3.00;99.90;;;;;;5047245;28;19952;-69
2023/03/08 02:14:34;;;;;;;;;;;3.00;99.90;;;;;;5047045;28;19928;-69
2023/03/08 02:17:00;;;;;;;;;;;2.90;99.90;;;;;;5046635;28;19921;-68
2023/03/08 02:19:28;;;;;;;;;;;2.90;99.90;;;;;;5047001;28;19957;-69
2023/03/08 02:21:55;;;;;;;;;;;2.90;99.90;;;;;;5046795;28;19921;-68
2023/03/08 02:24:24;;;;;;;;;;;2.90;99.90;;;;;;5066926;28;19995;-69
2023/03/08 02:26:52;;;;;;;;;;;2.80;99.90;;;;;;5066204;28;19927;-69
2023/03/08 02:29:19;;;;;;;;;;;2.80;99.90;;;;;;5066878;28;20098;-69
2023/03/08 02:31:45;;;;;;;;;;;2.80;99.90;;;;;;5066377;28;19927;-69
2023/03/08 02:34:12;;;;;;;;;;;2.70;99.90;;;;;;5065186;28;19956;-69
2023/03/08 02:36:38;;;;;;;;;;;2.70;99.90;;;;;;5065380;28;20239;-68
2023/03/08 02:39:05;;;;;;;;;;;2.70;99.90;;;;;;5066591;28;19956;-69
2023/03/08 02:41:33;;;;;;;;;;;2.60;99.90;;;;;;5066613;28;19963;-69
2023/03/08 02:44:00;;;;;;;;;;;2.70;99.90;;;;;;5066579;28;19921;-69
2023/03/08 02:46:26;;;;;;;;;;;2.60;99.90;;;;;;5065170;28;19955;-69
2023/03/08 02:48:54;;;;;;;;;;;2.60;99.90;;;;;;5063813;28;20112;-69
2023/03/08 02:51:21;;;;;;;;;;;2.60;99.90;;;;;;5066433;28;19984;-69
2023/03/08 02:53:47;;;;;;;;;;;2.50;99.90;;;;;;5048458;28;19952;-69
2023/03/08 02:56:14;;;;;;;;;;;2.60;99.90;;;;;;5045260;28;19921;-69
2023/03/08 02:58:42;;;;;;;;;;;2.60;99.90;;;;;;5045878;28;19921;-69
2023/03/08 03:01:10;;;;;;;;;;;2.50;99.90;;;;;;5045704;28;21601;-69
2023/03/08 03:03:37;;;;;;;;;;;2.50;99.90;;;;;;5046096;28;19921;-68
2023/03/08 03:06:03;;;;;;;;;;;2.50;99.90;;;;;;5045308;28;20281;-69
2023/03/08 03:08:30;;;;;;;;;;;2.40;99.90;;;;;;5045678;28;19931;-69
2023/03/08 03:10:57;;;;;;;;;;;2.40;99.90;;;;;;5046136;28;19921;-69
2023/03/08 03:13:24;;;;;;;;;;;2.30;99.90;;;;;;5045872;28;20004;-69
2023/03/08 03:15:52;;;;;;;;;;;2.30;99.90;;;;;;5045610;28;19929;-69
2023/03/08 03:18:18;;;;;;;;;;;2.30;99.90;;;;;;5045296;28;19928;-69
2023/03/08 03:20:45;;;;;;;;;;;2.30;99.90;;;;;;5045901;28;20173;-69
2023/03/08 03:23:11;;;;;;;;;;;2.20;99.90;;;;;;5045826;28;19996;-69
2023/03/08 03:25:42;;;;;;;;;;;2.20;99.90;;;;;;5043153;28;19921;-69
2023/03/08 03:28:08;;;;;;;;;;;2.20;99.90;;;;;;5045546;28;20167;-69
2023/03/08 03:30:35;;;;;;;;;;;2.20;99.90;;;;;;5045702;28;19960;-69
2023/03/08 03:33:03;;;;;;;;;;;2.20;99.90;;;;;;5045611;28;19960;-69
2023/03/08 03:35:29;;;;;;;;;;;2.10;99.90;;;;;;5045227;28;20000;-69
2023/03/08 03:37:58;;;;;;;;;;;2.20;99.90;;;;;;5044222;28;19984;-68
2023/03/08 03:40:25;;;;;;;;;;;2.10;99.90;;;;;;5045213;28;19920;-69
2023/03/08 03:42:51;;;;;;;;;;;2.10;99.90;;;;;;5045108;28;19927;-68
2023/03/08 03:45:18;;;;;;;;;;;2.10;99.90;;;;;;5045327;28;19956;-68
2023/03/08 03:47:48;;;;;;;;;;;2.10;99.90;;;;;;5041720;28;20136;-69
2023/03/08 03:50:16;;;;;;;;;;;2.10;99.90;;;;;;5045201;28;19921;-69
2023/03/08 03:52:43;;;;;;;;;;;2.10;99.90;;;;;;5044663;28;19927;-69
2023/03/08 03:55:09;;;;;;;;;;;2.10;99.90;;;;;;5045102;28;19987;-69
2023/03/08 03:57:36;;;;;;;;;;;2.10;99.90;;;;;;5064367;28;19988;-69
2023/03/08 04:00:04;;;;;;;;;;;2.20;99.90;;;;;;5051367;28;20232;-69
2023/03/08 04:02:31;;;;;;;;;;;2.10;99.90;;;;;;5045041;28;19964;-68
2023/03/08 04:04:57;;;;;;;;;;;2.20;99.90;;;;;;5044585;28;19953;-68
2023/03/08 04:07:25;;;;;;;;;;;2.20;99.90;;;;;;5043788;28;19964;-69
2023/03/08 04:09:52;;;;;;;;;;;2.20;99.90;;;;;;5044602;28;19921;-69
2023/03/08 04:12:18;;;;;;;;;;;2.20;99.90;;;;;;5044709;28;19980;-69
2023/03/08 04:14:45;;;;;;;;;;;2.20;99.90;;;;;;5044487;28;19956;-69
2023/03/08 04:17:11;;;;;;;;;;;2.20;99.90;;;;;;5044190;28;19960;-69
2023/03/08 04:19:38;;;;;;;;;;;2.20;99.90;;;;;;5044734;28;20181;-69
2023/03/08 04:22:05;;;;;;;;;;;2.20;99.90;;;;;;5044258;28;20332;-69
2023/03/08 04:24:33;;;;;;;;;;;2.20;99.90;;;;;;5044481;28;19989;-70
2023/03/08 04:26:59;;;;;;;;;;;2.20;99.90;;;;;;5043770;28;19921;-68
2023/03/08 04:29:26;;;;;;;;;;;2.30;99.90;;;;;;5044038;28;20288;-69
2023/03/08 04:31:57;;;;;;;;;;;2.30;99.90;;;;;;5042087;28;19961;-69
2023/03/08 04:34:23;;;;;;;;;;;2.20;99.90;;;;;;5043979;28;19921;-69
2023/03/08 04:36:50;;;;;;;;;;;2.30;99.90;;;;;;5043075;28;20252;-69
2023/03/08 04:39:16;;;;;;;;;;;2.30;99.90;;;;;;5044200;28;19984;-68
2023/03/08 04:41:44;;;;;;;;;;;2.30;99.90;;;;;;5044221;28;19984;-69
2023/03/08 04:44:11;;;;;;;;;;;2.30;99.90;;;;;;5044309;28;19921;-69
2023/03/08 04:46:37;;;;;;;;;;;2.30;99.90;;;;;;5043563;28;19921;-69
2023/03/08 04:49:06;;;;;;;;;;;2.30;99.90;;;;;;5043355;28;20000;-69
2023/03/08 04:51:33;;;;;;;;;;;2.30;99.90;;;;;;5043856;28;19935;-69
2023/03/08 04:53:59;;;;;;;;;;;2.30;99.90;;;;;;5043719;28;19928;-69
2023/03/08 04:56:26;;;;;;;;;;;2.30;99.90;;;;;;5043236;28;19980;-69
2023/03/08 04:58:54;;;;;;;;;;;2.30;99.90;;;;;;5043615;28;19964;-69
2023/03/08 05:01:22;;;;;;;;;;;2.20;99.90;;;;;;5043884;28;19927;-68
2023/03/08 05:03:49;;;;;;;;;;;2.20;99.90;;;;;;5043832;28;19921;-68
2023/03/08 05:06:16;;;;;;;;;;;2.30;99.90;;;;;;5043140;28;20157;-69
2023/03/08 05:08:42;;;;;;;;;;;2.30;99.90;;;;;;5043859;28;19993;-68
2023/03/08 05:11:09;;;;;;;;;;;2.30;99.90;;;;;;5043494;28;19920;-69
2023/03/08 05:13:37;;;;;;;;;;;2.30;99.90;;;;;;5043062;28;19948;-69
2023/03/08 05:16:06;;;;;;;;;;;2.30;99.90;;;;;;5043043;28;19991;-69
2023/03/08 05:18:33;;;;;;;;;;;2.20;99.90;;;;;;5043094;28;20209;-69
2023/03/08 05:21:01;;;;;;;;;;;2.20;99.90;;;;;;5043799;28;19988;-68
2023/03/08 05:23:28;;;;;;;;;;;2.20;99.90;;;;;;5043449;28;20001;-68
2023/03/08 05:25:55;;;;;;;;;;;2.20;99.90;;;;;;5063099;28;19955;-69
2023/03/08 05:28:22;;;;;;;;;;;2.20;99.90;;;;;;5056860;28;19961;-69
2023/03/08 05:30:49;;;;;;;;;;;2.20;99.90;;;;;;5043200;28;20232;-69
2023/03/08 05:33:17;;;;;;;;;;;2.20;99.90;;;;;;5023101;28;19921;-69
2023/03/08 05:35:44;;;;;;;;;;;2.20;99.90;;;;;;5023456;28;19935;-68
2023/03/08 05:38:10;;;;;;;;;;;2.30;99.90;;;;;;5042200;28;19925;-69
2023/03/08 05:40:37;;;;;;;;;;;2.30;99.90;;;;;;5043410;28;19988;-68
2023/03/08 05:43:04;;;;;;;;;;;2.20;99.90;;;;;;5042459;28;19952;-69
2023/03/08 05:45:30;;;;;;;;;;;2.30;99.90;;;;;;5043038;28;19921;-69
2023/03/08 05:48:03;;;;;;;;;;;2.30;99.90;;;;;;5039836;28;19952;-69
2023/03/08 05:50:41;;;;;;;;;;;2.30;99.90;;;;;;5041584;28;19921;-68
2023/03/08 05:53:08;;;;;;;;;;;2.30;99.90;;;;;;5042152;28;19984;-69
2023/03/08 05:55:34;;;;;;;;;;;2.40;99.90;;;;;;5042465;28;19984;-69
2023/03/08 05:58:01;;;;;;;;;;;2.30;99.90;;;;;;5041897;28;20255;-69
2023/03/08 06:00:27;;;;;;;;;;;2.30;99.90;;;;;;5043333;28;19957;-69
2023/03/08 06:02:54;;;;;;;;;;;2.30;99.90;;;;;;5043036;28;19980;-68
2023/03/08 06:05:21;;;;;;;;;;;2.30;99.90;;;;;;5043264;28;19984;-69
2023/03/08 06:07:49;;;;;;;;;;;2.30;99.90;;;;;;5037567;28;19992;-69
2023/03/08 06:10:16;;;;;;;;;;;2.30;99.90;;;;;;5042822;28;19928;-69
2023/03/08 06:12:42;;;;;;;;;;;2.30;99.90;;;;;;5043135;28;19921;-69
2023/03/08 06:15:10;;;;;;;;;;;2.30;99.90;;;;;;5043116;28;19955;-69
2023/03/08 06:17:36;;;;;;;;;;;2.30;99.90;;;;;;5042548;28;19946;-69
2023/03/08 06:20:03;;;;;;;;;;;2.30;99.90;;;;;;5043010;28;19960;-69
2023/03/08 06:22:30;;;;;;;;;;;2.30;99.90;;;;;;5042864;28;19988;-69
2023/03/08 06:24:58;;;;;;;;;;;2.30;99.90;;;;;;5046174;28;20005;-71
2023/03/08 06:27:25;;;;;;;;;;;2.30;99.90;;;;;;5043785;28;20328;-69
2023/03/08 06:29:51;;;;;;;;;;;2.40;99.90;;;;;;5046341;28;19927;-69
2023/03/08 06:32:18;;;;;;;;;;;2.40;99.90;;;;;;5046314;28;19921;-69
2023/03/08 06:34:46;;;;;;;;;;;2.40;99.90;;;;;;5046192;28;19988;-69
2023/03/08 06:37:19;;;;;;;;;;;2.40;99.90;;;;;;5044537;28;19967;-69
2023/03/08 06:39:48;;;;;;;;;;;2.40;99.90;;;;;;5044803;28;19988;-68
2023/03/08 06:42:15;;;;;;;;;;;2.50;99.90;;;;;;5046230;28;19959;-68
2023/03/08 06:44:42;;;;;;;;;;;2.50;99.90;;;;;;5045874;28;20173;-68
2023/03/08 06:47:09;;;;;;;;;;;2.50;99.90;;;;;;5045579;28;19984;-68
2023/03/08 06:49:35;;;;;;;;;;;2.50;99.90;;;;;;5046342;28;19964;-68
2023/03/08 06:52:02;;;;;;;;;;;2.50;99.90;;;;;;5046309;28;19956;-69
2023/03/08 06:54:29;;;;;;;;;;;2.50;99.90;;;;;;5045771;28;20135;-68
2023/03/08 06:56:55;;;;;;;;;;;2.50;99.90;;;;;;5043579;28;19921;-69
2023/03/08 06:59:23;;;;;;;;;;;2.50;99.90;;;;;;5055820;28;19921;-68
2023/03/08 07:01:50;;;;;;;;;;;2.60;99.90;;;;;;5045781;28;19984;-68
2023/03/08 07:04:17;;;;;;;;;;;2.60;99.90;;;;;;5046109;28;19984;-69
2023/03/08 07:06:43;;;;;;;;;;;2.60;99.90;;;;;;5045009;28;19921;-69
2023/03/08 07:09:12;;;;;;;;;;;2.60;99.90;;;;;;5045983;28;19976;-68
2023/03/08 07:11:38;;;;;;;;;;;2.60;99.90;;;;;;5045737;28;19921;-68
2023/03/08 07:14:05;;;;;;;;;;;2.60;99.90;;;;;;5045951;28;19984;-69
2023/03/08 07:16:33;;;;;;;;;;;2.60;99.90;;;;;;5045127;28;19929;-69
2023/03/08 07:19:01;;;;;;;;;;;2.60;99.90;;;;;;5045548;28;19988;-69
2023/03/08 07:21:27;;;;;;;;;;;2.60;99.90;;;;;;5045493;28;19984;-69
2023/03/08 07:23:54;;;;;;;;;;;2.60;99.90;;;;;;5045347;28;19988;-69
2023/03/08 07:26:21;;;;;;;;;;;2.60;99.90;;;;;;5058648;28;19968;-68
2023/03/08 07:28:51;;;;;;;;;;;2.60;99.90;;;;;;5042832;28;19989;-68
2023/03/08 07:31:17;;;;;;;;;;;2.70;99.90;;;;;;5045630;28;19921;-68
2023/03/08 07:33:45;;;;;;;;;;;2.70;99.90;;;;;;5045563;28;19959;-68
2023/03/08 07:36:12;;;;;;;;;;;2.70;99.90;;;;;;5043104;28;19956;-69
2023/03/08 07:38:39;;;;;;;;;;;2.70;99.90;;;;;;5044883;28;19957;-69
2023/03/08 07:41:05;;;;;;;;;;;2.80;99.90;;;;;;5045486;28;19921;-68
2023/03/08 07:43:33;;;;;;;;;;;2.70;99.90;;;;;;5043300;28;20220;-68
2023/03/08 07:46:01;;;;;;;;;;;2.70;99.90;;;;;;5044920;28;19994;-68
2023/03/08 07:48:28;;;;;;;;;;;2.70;99.90;;;;;;5044654;28;19921;-68
2023/03/08 07:51:01;;;;;;;;;;;2.70;99.90;;;;;;5045129;28;19921;-68
2023/03/08 07:53:27;;;;;;;;;;;2.70;99.90;;;;;;5044752;28;19921;-68
2023/03/08 07:55:54;;;;;;;;;;;2.70;99.90;;;;;;5044729;28;19964;-68
2023/03/08 07:58:21;;;;;;;;;;;2.70;99.90;;;;;;5045046;28;19956;-68
2023/03/08 08:00:47;;;;;;;;;;;2.80;99.90;;;;;;5045103;28;19960;-68
2023/03/08 08:03:14;;;;;;;;;;;2.80;99.90;;;;;;5064705;28;19984;-68
2023/03/08 08:05:40;;;;;;;;;;;2.80;99.90;;;;;;5064777;28;19968;-68
2023/03/08 08:08:09;;;;;;;;;;;2.80;99.90;;;;;;5064679;28;19984;-68
2023/03/08 08:10:36;;;;;;;;;;;2.80;99.90;;;;;;5064674;28;19921;-68
2023/03/08 08:13:02;;;;;;;;;;;2.80;99.90;;;;;;5064941;28;19921;-69
2023/03/08 08:15:29;;;;;;;;;;;2.90;99.90;;;;;;5064342;28;20231;-68
2023/03/08 08:17:56;;;;;;;;;;;2.90;99.90;;;;;;5064093;28;19943;-68
2023/03/08 08:20:23;;;;;;;;;;;2.90;99.90;;;;;;5064384;28;20286;-68
2023/03/08 08:22:52;;;;;;;;;;;3.00;99.90;;;;;;5064363;28;19920;-68
2023/03/08 08:25:20;;;;;;;;;;;3.00;99.90;;;;;;5050774;28;19921;-68
2023/03/08 08:27:47;;;;;;;;;;;3.00;99.90;;;;;;5044114;28;19921;-68
2023/03/08 08:30:14;;;;;;;;;;;3.00;99.90;;;;;;5043965;28;20280;-69
2023/03/08 08:32:41;;;;;;;;;;;3.00;99.90;;;;;;5044404;28;19921;-69
2023/03/08 08:35:08;;;;;;;;;;;3.00;99.90;;;;;;5064292;28;20090;-68
2023/03/08 08:37:35;;;;;;;;;;;3.00;99.90;;;;;;5063492;28;20131;-68
2023/03/08 08:40:02;;;;;;;;;;;2.90;99.90;;;;;;5064054;28;19920;-68
2023/03/08 08:42:30;;;;;;;;;;;2.80;99.90;;;;;;5064063;28;19958;-68
2023/03/08 08:44:57;;;;;;;;;;;2.80;99.90;;;;;;5062153;28;20204;-68
2023/03/08 08:47:23;;;;;;;;;;;2.70;99.90;;;;;;5063425;28;19959;-68
2023/03/08 08:49:51;;;;;;;;;;;2.70;99.90;;;;;;5063764;28;19921;-68
2023/03/08 08:52:19;;;;;;;;;;;2.60;99.90;;;;;;5064115;28;19927;-68
2023/03/08 08:54:46;;;;;;;;;;;2.50;99.90;;;;;;5055646;28;19980;-68
2023/03/08 08:57:12;;;;;;;;;;;2.60;99.90;;;;;;5043415;28;19956;-68
2023/03/08 08:59:40;;;;;;;;;;;2.50;99.90;;;;;;5044041;28;19979;-68
2023/03/08 09:02:07;;;;;;;;;;;2.40;99.90;;;;;;5043827;28;19984;-68
2023/03/08 09:04:33;;;;;;;;;;;2.40;99.90;;;;;;5043532;28;20209;-68
2023/03/08 09:07:00;;;;;;;;;;;2.40;99.90;;;;;;5042819;28;19995;-68
2023/03/08 09:09:27;;;;;;;;;;;2.40;99.90;;;;;;5043269;28;19944;-68
2023/03/08 09:11:53;;;;;;;;;;;2.50;99.90;;;;;;5043378;28;19921;-68
2023/03/08 09:14:20;;;;;;;;;;;2.40;99.90;;;;;;5043828;28;19980;-68
2023/03/08 09:16:48;;;;;;;;;;;2.40;99.90;;;;;;5042899;28;19988;-68
2023/03/08 09:19:15;;;;;;;;;;;2.40;99.90;;;;;;5043373;28;19952;-68
2023/03/08 09:21:41;;;;;;;;;;;2.40;99.90;;;;;;5043575;28;20256;-67
2023/03/08 09:24:09;;;;;;;;;;;2.50;99.90;;;;;;5043232;28;19953;-68
2023/03/08 09:26:36;;;;;;;;;;;2.40;99.90;;;;;;5042862;28;20191;-68
2023/03/08 09:29:06;;;;;;;;;;;2.40;99.90;;;;;;5048483;28;19969;-68
2023/03/08 09:31:34;;;;;;;;;;;2.30;99.90;;;;;;5042752;28;20213;-69
2023/03/08 09:34:03;;;;;;;;;;;2.30;99.90;;;;;;5043185;28;19945;-68
2023/03/08 09:36:30;;;;;;;;;;;2.30;99.90;;;;;;5042873;28;19928;-68
2023/03/08 09:38:56;;;;;;;;;;;2.30;99.90;;;;;;5043003;28;19927;-68
2023/03/08 09:41:28;;;;;;;;;;;2.30;99.90;;;;;;5042822;28;19960;-68
2023/03/08 09:44:01;;;;;;;;;;;2.30;99.90;;;;;;5042693;28;20209;-68
2023/03/08 09:46:29;;;;;;;;;;;2.40;99.90;;;;;;5042705;28;19956;-68
2023/03/08 09:48:59;;;;;;;;;;;2.40;99.90;;;;;;5043289;28;20113;-68
2023/03/08 09:51:29;;;;;;;;;;;2.40;99.90;;;;;;5042756;28;19996;-68
2023/03/08 09:53:59;;;;;;;;;;;2.40;99.90;;;;;;5043381;28;19927;-68
2023/03/08 09:56:29;;;;;;;;;;;2.30;99.90;;;;;;5043050;28;19984;-68
2023/03/08 09:58:57;;;;;;;;;;;2.30;99.90;;;;;;5045274;28;19984;-68
2023/03/08 10:01:30;;;;;;;;;;;2.30;99.90;;;;;;5046908;28;19927;-68
2023/03/08 10:04:23;;;;;;;;;;;2.30;99.90;;;;;;5027272;28;20202;-68
2023/03/08 10:06:56;;;;;;;;;;;2.30;99.90;;;;;;5026415;28;19992;-68
2023/03/08 10:09:27;;;;;;;;;;;2.30;99.90;;;;;;5027248;28;19921;-68
2023/03/08 10:12:00;;;;;;;;;;;2.30;99.90;;;;;;5027064;28;19921;-68
2023/03/08 10:14:29;;;;;;;;;;;2.30;99.90;;;;;;5026903;28;19921;-68
2023/03/08 10:16:58;;;;;;;;;;;2.40;99.90;;;;;;5026528;28;19988;-68
2023/03/08 10:19:28;;;;;;;;;;;2.40;99.90;;;;;;5037165;28;19989;-68
2023/03/08 10:21:57;;;;;;;;;;;2.40;99.90;;;;;;5046584;28;19961;-68
2023/03/08 10:24:26;;;;;;;;;;;2.40;99.90;;;;;;5046621;28;19928;-68
2023/03/08 10:26:53;;;;;;;;;;;2.40;99.90;;;;;;5045903;28;19961;-68
2023/03/08 10:29:20;;;;;;;;;;;2.40;99.90;;;;;;5046402;28;19921;-68
2023/03/08 10:31:47;;;;;;;;;;;2.40;99.90;;;;;;5046535;28;20212;-68
2023/03/08 10:34:15;;;;;;;;;;;2.40;99.90;;;;;;5046397;28;19936;-68
2023/03/08 10:36:49;;;;;;;;;;;2.50;99.90;;;;;;5045822;28;19976;-68
2023/03/08 10:39:17;;;;;;;;;;;2.50;99.90;;;;;;5046566;28;20000;-68
2023/03/08 10:41:45;;;;;;;;;;;2.50;99.90;;;;;;5046500;28;19921;-67
2023/03/08 10:44:14;;;;;;;;;;;2.50;99.90;;;;;;5046450;28;19984;-68
2023/03/08 10:46:45;;;;;;;;;;;2.60;99.90;;;;;;5045750;28;20216;-68
2023/03/08 10:49:15;;;;;;;;;;;2.60;99.90;;;;;;5045781;28;19980;-67
2023/03/08 10:51:54;;;;;;;;;;;2.60;99.90;;;;;;5044453;28;19984;-68
2023/03/08 10:54:22;;;;;;;;;;;2.60;99.90;;;;;;5046004;28;19953;-68
2023/03/08 10:56:53;;;;;;;;;;;2.60;99.90;;;;;;5045655;28;20176;-68
2023/03/08 10:59:26;;;;;;;;;;;2.70;99.90;;;;;;5045949;28;19928;-68
2023/03/08 11:01:53;;;;;;;;;;;2.70;99.90;;;;;;5045732;28;20115;-68
2023/03/08 11:04:21;;;;;;;;;;;2.80;99.90;;;;;;5046113;28;19928;-68
2023/03/08 11:06:48;;;;;;;;;;;2.80;99.90;;;;;;5045381;28;19921;-68
2023/03/08 11:09:19;;;;;;;;;;;2.80;99.90;;;;;;5045536;28;19921;-68
2023/03/08 11:11:47;;;;;;;;;;;2.90;99.90;;;;;;5044822;28;20255;-68
2023/03/08 11:14:14;;;;;;;;;;;2.80;99.90;;;;;;5045988;28;19956;-68
2023/03/08 11:16:45;;;;;;;;;;;2.80;99.90;;;;;;5045039;28;20179;-68
2023/03/08 11:19:22;;;;;;;;;;;2.90;99.90;;;;;;5045694;28;19960;-68
2023/03/08 11:21:53;;;;;;;;;;;2.90;99.90;;;;;;5045194;28;19921;-68
2023/03/08 11:24:28;;;;;;;;;;;2.90;99.90;;;;;;5045220;28;19984;-68
2023/03/08 11:27:02;;;;;;;;;;;3.00;99.90;;;;;;5044815;28;19984;-68
2023/03/08 11:29:39;;;;;;;;;;;3.00;99.90;;;;;;5045789;28;20121;-68
2023/03/08 11:32:12;;;;;;;;;;;3.00;99.90;;;;;;5045366;28;19928;-69
2023/03/08 11:34:47;;;;;;;;;;;3.10;99.90;;;;;;5045371;28;19927;-68
2023/03/08 11:37:18;;;;;;;;;;;3.20;99.90;;;;;;5044631;28;19931;-68
2023/03/08 11:39:46;;;;;;;;;;;3.20;99.90;;;;;;5045291;28;19920;-68
2023/03/08 11:42:17;;;;;;;;;;;3.30;99.90;;;;;;5045425;28;19921;-68
2023/03/08 11:44:51;;;;;;;;;;;3.30;99.90;;;;;;5045100;28;20266;-68
2023/03/08 11:47:31;;;;;;;;;;;3.40;99.90;;;;;;5044501;28;20201;-68
2023/03/08 11:50:05;;;;;;;;;;;3.40;99.90;;;;;;5043740;28;20011;-68
2023/03/08 11:52:36;;;;;;;;;;;3.40;99.90;;;;;;5043026;28;19925;-68
2023/03/08 11:55:10;;;;;;;;;;;3.50;99.90;;;;;;5044343;28;19921;-68
2023/03/08 11:57:40;;;;;;;;;;;3.50;99.90;;;;;;5036459;28;19992;-68
2023/03/08 12:00:15;;;;;;;;;;;3.50;99.90;;;;;;5045027;28;19946;-68
2023/03/08 12:02:44;;;;;;;;;;;3.60;99.90;;;;;;5043554;28;19921;-69
2023/03/08 12:05:13;;;;;;;;;;;3.60;99.90;;;;;;5044246;28;19921;-68
2023/03/08 12:07:42;;;;;;;;;;;3.60;99.90;;;;;;5043830;28;19967;-68
2023/03/08 12:10:15;;;;;;;;;;;3.70;99.90;;;;;;5044066;28;19984;-68
2023/03/08 12:12:46;;;;;;;;;;;3.80;99.90;;;;;;5044684;28;19971;-68
2023/03/08 12:15:17;;;;;;;;;;;3.90;99.90;;;;;;5044614;28;19992;-68
2023/03/08 12:17:46;;;;;;;;;;;3.90;99.90;;;;;;5044279;28;19993;-69
2023/03/08 12:20:13;;;;;;;;;;;3.90;99.90;;;;;;5044242;28;19945;-68
2023/03/08 12:22:45;;;;;;;;;;;4.00;99.90;;;;;;5043809;28;19921;-68
2023/03/08 12:25:17;;;;;;;;;;;4.00;99.90;;;;;;5044223;28;20224;-68
2023/03/08 12:27:47;;;;;;;;;;;4.00;99.90;;;;;;5043780;28;19989;-68
2023/03/08 12:30:17;;;;;;;;;;;4.10;99.90;;;;;;5044431;28;19921;-68
2023/03/08 12:32:44;;;;;;;;;;;4.10;99.90;;;;;;5044370;28;20004;-68
2023/03/08 12:35:24;;;;;;;;;;;4.20;99.90;;;;;;5044144;28;19928;-68
2023/03/08 12:37:54;;;;;;;;;;;4.20;99.90;;;;;;5043583;28;20016;-69
2023/03/08 12:40:42;;;;;;;;;;;4.20;99.90;;;;;;5044465;28;19955;-68
2023/03/08 12:43:12;;;;;;;;;;;4.30;99.90;;;;;;5037971;28;20102;-68
2023/03/08 12:45:39;;;;;;;;;;;4.30;99.90;;;;;;5043981;28;19925;-68
2023/03/08 12:48:17;;;;;;;;;;;4.40;99.90;;;;;;5043466;28;20012;-67
2023/03/08 12:50:45;;;;;;;;;;;4.50;99.90;;;;;;5044115;28;19984;-68
2023/03/08 12:53:21;;;;;;;;;;;4.50;99.90;;;;;;5043668;28;19921;-67
2023/03/08 12:55:58;;;;;;;;;;;4.60;99.90;;;;;;5063586;28;19986;-68
2023/03/08 12:58:34;;;;;;;;;;;4.70;99.90;;;;;;5045875;28;19929;-68
2023/03/08 13:01:01;;;;;;;;;;;4.70;99.90;;;;;;5043693;28;19925;-68
2023/03/08 13:03:29;;;;;;;;;;;4.80;99.90;;;;;;5043535;28;19956;-69
2023/03/08 13:05:56;;;;;;;;;;;4.90;99.90;;;;;;5043512;28;19992;-68
2023/03/08 13:08:28;;;;;;;;;;;4.90;99.90;;;;;;5042647;28;19963;-68
2023/03/08 13:11:00;;;;;;;;;;;5.00;99.90;;;;;;5043645;28;19921;-68
2023/03/08 13:13:31;;;;;;;;;;;5.00;99.90;;;;;;5043572;28;19921;-68
2023/03/08 13:16:19;;;;;;;;;;;5.10;99.90;;;;;;5043638;28;19921;-68
2023/03/08 13:18:47;;;;;;;;;;;5.10;99.90;;;;;;5043691;28;19928;-68
2023/03/08 13:21:24;;;;;;;;;;;5.20;99.90;;;;;;5043617;28;19952;-68
2023/03/08 13:23:53;;;;;;;;;;;5.20;99.90;;;;;;5023397;28;19921;-68
2023/03/08 13:26:31;;;;;;;;;;;5.30;99.90;;;;;;5022969;28;19921;-69
2023/03/08 13:28:58;;;;;;;;;;;5.40;99.90;;;;;;5042383;28;20209;-69
2023/03/08 13:31:29;;;;;;;;;;;5.40;99.90;;;;;;5043172;28;19953;-68
2023/03/08 13:33:58;;;;;;;;;;;5.50;99.90;;;;;;5042616;28;19948;-68
2023/03/08 13:36:26;;;;;;;;;;;5.60;99.90;;;;;;5042589;28;19988;-68
2023/03/08 13:38:56;;;;;;;;;;;5.70;99.90;;;;;;5043512;28;19988;-68
2023/03/08 13:41:33;;;;;;;;;;;5.80;99.90;;;;;;5043334;28;19972;-67
2023/03/08 13:44:03;;;;;;;;;;;5.90;99.90;;;;;;5043304;28;19921;-69
2023/03/08 13:46:31;;;;;;;;;;;6.00;99.90;;;;;;5042218;28;20220;-68
2023/03/08 13:48:58;;;;;;;;;;;6.20;99.90;;;;;;5043151;28;19943;-68
2023/03/08 13:51:26;;;;;;;;;;;6.40;99.90;;;;;;5042796;28;19936;-68
2023/03/08 13:53:54;;;;;;;;;;;6.40;99.90;;;;;;5042846;28;19946;-69
2023/03/08 13:56:23;;;;;;;;;;;6.50;99.90;;;;;;5039747;28;19957;-68
2023/03/08 13:58:51;;;;;;;;;;;6.60;99.90;;;;;;5042162;28;19921;-68
2023/03/08 14:01:21;;;;;;;;;;;6.70;99.90;;;;;;5042734;28;19921;-68
2023/03/08 14:03:49;;;;;;;;;;;6.80;99.90;;;;;;5042818;28;20212;-69
2023/03/08 14:06:17;;;;;;;;;;;7.00;99.90;;;;;;5042767;28;19984;-69
2023/03/08 14:08:45;;;;;;;;;;;7.10;99.90;;;;;;5042738;28;19924;-69
2023/03/08 14:11:15;;;;;;;;;;;7.20;99.90;;;;;;5041563;28;19927;-69
2023/03/08 14:13:45;;;;;;;;;;;7.40;99.90;;;;;;5042682;28;19928;-69
2023/03/08 14:16:23;;;;;;;;;;;7.50;99.90;;;;;;5041780;28;19928;-68
2023/03/08 14:18:51;;;;;;;;;;;7.60;99.90;;;;;;5042789;28;20157;-68
2023/03/08 14:21:20;;;;;;;;;;;7.80;99.90;;;;;;5042959;28;19963;-69
2023/03/08 14:23:48;;;;;;;;;;;7.90;99.90;;;;;;5043066;28;19988;-68
2023/03/08 14:26:24;;;;;;;;;;;7.90;99.90;;;;;;5041741;28;19984;-68
2023/03/08 14:29:01;;;;;;;;;;;8.00;99.90;;;;;;5041951;28;19928;-68
2023/03/08 14:31:29;;;;;;;;;;;8.10;99.90;;;;;;5041888;28;19980;-68
2023/03/08 14:33:58;;;;;;;;;;;8.20;99.90;;;;;;5042196;28;19928;-68
2023/03/08 14:36:25;;;;;;;;;;;8.20;99.90;;;;;;5041631;28;19989;-68
2023/03/08 14:38:52;;;;;;;;;;;8.20;99.90;;;;;;5042414;28;19921;-68